sensor_id;sensor_type;location;lat;lon;timestamp;pressure;altitude;pressure_sealevel;temperature;humidity
11108;BME280;5607;48.302;14.294;2023-02-12T00:01:21;100324.09;;;4.21;100.00
11108;BME280;5607;48.302;14.294;2023-02-12T00:04:08;100316.84;;;4.30;100.00
11108;BME280;5607;48.302;14.294;2023-02-12T00:06:54;100313.38;;;4.31;100.00
11108;BME280;5607;48.302;14.294;2023-02-12T00:09:41;100323.34;;;4.41;100.00
11108;BME280;5607;48.302;14.294;2023-02-12T00:12:28;100327.75;;;4.15;100.00
11108;BME280;5607;48.302;14.294;2023-02-12T00:15:14;100319.34;;;4.10;100.00
11108;BME280;5607;48.302;14.294;2023-02-12T00:18:01;100307.81;;;4.19;100.00
11108;BME280;5607;48.302;14.294;2023-02-12T00:20:48;100323.78;;;4.30;100.00
11108;BME280;5607;48.302;14.294;2023-02-12T00:23:35;100318.75;;;4.25;100.00
11108;BME280;5607;48.302;14.294;2023-02-12T00:26:22;100334.41;;;4.22;100.00
11108;BME280;5607;48.302;14.294;2023-02-12T00:29:09;100332.81;;;4.18;100.00
11108;BME280;5607;48.302;14.294;2023-02-12T00:31:56;100335.88;;;4.28;100.00
11108;BME280;5607;48.302;14.294;2023-02-12T00:34:43;100340.28;;;4.26;100.00
11108;BME280;5607;48.302;14.294;2023-02-12T00:37:29;100340.06;;;4.32;100.00
11108;BME280;5607;48.302;14.294;2023-02-12T00:40:16;100343.19;;;4.40;100.00
11108;BME280;5607;48.302;14.294;2023-02-12T00:43:02;100323.72;;;4.31;100.00
11108;BME280;5607;48.302;14.294;2023-02-12T00:45:49;100318.31;;;4.14;100.00
11108;BME280;5607;48.302;14.294;2023-02-12T00:48:35;100345.31;;;4.30;100.00
11108;BME280;5607;48.302;14.294;2023-02-12T00:51:24;100351.16;;;4.36;100.00
11108;BME280;5607;48.302;14.294;2023-02-12T00:54:10;100342.25;;;4.43;100.00
11108;BME280;5607;48.302;14.294;2023-02-12T00:56:57;100327.66;;;4.42;100.00
11108;BME280;5607;48.302;14.294;2023-02-12T00:59:44;100332.75;;;4.43;100.00
11108;BME280;5607;48.302;14.294;2023-02-12T01:02:30;100335.19;;;4.48;100.00
11108;BME280;5607;48.302;14.294;2023-02-12T01:05:17;100327.34;;;4.49;100.00
11108;BME280;5607;48.302;14.294;2023-02-12T01:08:04;100340.91;;;4.56;100.00
11108;BME280;5607;48.302;14.294;2023-02-12T01:10:56;100353.47;;;4.65;100.00
11108;BME280;5607;48.302;14.294;2023-02-12T01:13:43;100350.03;;;4.65;100.00
11108;BME280;5607;48.302;14.294;2023-02-12T01:16:30;100342.28;;;4.65;100.00
11108;BME280;5607;48.302;14.294;2023-02-12T01:19:21;100349.34;;;4.61;100.00
11108;BME280;5607;48.302;14.294;2023-02-12T01:22:08;100344.25;;;4.58;100.00
11108;BME280;5607;48.302;14.294;2023-02-12T01:24:54;100347.81;;;4.55;100.00
11108;BME280;5607;48.302;14.294;2023-02-12T01:27:41;100345.97;;;5.03;100.00
11108;BME280;5607;48.302;14.294;2023-02-12T01:30:27;100298.22;;;4.44;100.00
11108;BME280;5607;48.302;14.294;2023-02-12T01:33:14;100321.22;;;4.52;100.00
11108;BME280;5607;48.302;14.294;2023-02-12T01:36:00;100312.53;;;4.53;100.00
11108;BME280;5607;48.302;14.294;2023-02-12T01:38:48;100322.25;;;4.48;100.00
11108;BME280;5607;48.302;14.294;2023-02-12T01:41:37;100316.03;;;4.28;100.00
11108;BME280;5607;48.302;14.294;2023-02-12T01:44:28;100316.72;;;4.33;100.00
11108;BME280;5607;48.302;14.294;2023-02-12T01:47:16;100315.16;;;4.29;100.00
11108;BME280;5607;48.302;14.294;2023-02-12T01:50:05;100331.41;;;4.33;100.00
11108;BME280;5607;48.302;14.294;2023-02-12T01:52:55;100337.81;;;4.46;100.00
11108;BME280;5607;48.302;14.294;2023-02-12T01:55:43;100346.47;;;4.45;100.00
11108;BME280;5607;48.302;14.294;2023-02-12T01:58:34;100343.94;;;4.44;100.00
11108;BME280;5607;48.302;14.294;2023-02-12T02:01:26;100328.75;;;4.35;100.00
11108;BME280;5607;48.302;14.294;2023-02-12T02:04:16;100332.53;;;4.26;100.00
11108;BME280;5607;48.302;14.294;2023-02-12T02:07:05;100354.97;;;4.49;100.00
11108;BME280;5607;48.302;14.294;2023-02-12T02:09:54;100350.13;;;4.40;100.00
11108;BME280;5607;48.302;14.294;2023-02-12T02:12:41;100362.72;;;4.25;100.00
11108;BME280;5607;48.302;14.294;2023-02-12T02:15:48;100348.81;;;4.28;100.00
11108;BME280;5607;48.302;14.294;2023-02-12T02:18:49;100329.75;;;4.07;100.00
11108;BME280;5607;48.302;14.294;2023-02-12T02:22:00;100366.75;;;4.32;100.00
11108;BME280;5607;48.302;14.294;2023-02-12T02:31:04;100347.13;;;4.27;100.00
11108;BME280;5607;48.302;14.294;2023-02-12T02:33:58;100328.47;;;4.19;100.00
11108;BME280;5607;48.302;14.294;2023-02-12T02:37:31;100351.69;;;4.20;100.00
11108;BME280;5607;48.302;14.294;2023-02-12T02:40:23;100348.19;;;4.21;100.00
11108;BME280;5607;48.302;14.294;2023-02-12T02:43:22;100351.03;;;4.39;100.00
11108;BME280;5607;48.302;14.294;2023-02-12T02:46:25;100350.78;;;4.45;100.00
11108;BME280;5607;48.302;14.294;2023-02-12T02:49:20;100347.72;;;4.35;100.00
11108;BME280;5607;48.302;14.294;2023-02-12T02:52:11;100346.75;;;4.38;100.00
11108;BME280;5607;48.302;14.294;2023-02-12T02:55:04;100350.03;;;4.43;100.00
11108;BME280;5607;48.302;14.294;2023-02-12T02:58:03;100349.78;;;4.49;100.00
11108;BME280;5607;48.302;14.294;2023-02-12T03:04:07;100361.59;;;4.32;100.00
11108;BME280;5607;48.302;14.294;2023-02-12T03:10:05;100347.13;;;4.27;100.00
11108;BME280;5607;48.302;14.294;2023-02-12T03:13:01;100347.78;;;4.09;100.00
11108;BME280;5607;48.302;14.294;2023-02-12T03:24:48;100363.38;;;4.07;100.00
11108;BME280;5607;48.302;14.294;2023-02-12T03:27:40;100368.25;;;4.15;100.00
11108;BME280;5607;48.302;14.294;2023-02-12T03:30:41;100380.28;;;4.16;100.00
11108;BME280;5607;48.302;14.294;2023-02-12T03:37:03;100372.97;;;3.78;100.00
11108;BME280;5607;48.302;14.294;2023-02-12T03:40:03;100372.03;;;3.81;100.00
11108;BME280;5607;48.302;14.294;2023-02-12T03:48:49;100375.66;;;3.75;100.00
11108;BME280;5607;48.302;14.294;2023-02-12T03:51:43;100385.69;;;3.85;100.00
11108;BME280;5607;48.302;14.294;2023-02-12T03:54:30;100395.81;;;3.91;100.00
11108;BME280;5607;48.302;14.294;2023-02-12T03:57:22;100397.72;;;3.86;100.00
11108;BME280;5607;48.302;14.294;2023-02-12T04:00:17;100400.16;;;3.64;100.00
11108;BME280;5607;48.302;14.294;2023-02-12T04:03:05;100403.38;;;3.70;100.00
11108;BME280;5607;48.302;14.294;2023-02-12T04:05:52;100406.75;;;3.72;100.00
11108;BME280;5607;48.302;14.294;2023-02-12T04:08:38;100406.53;;;3.80;100.00
11108;BME280;5607;48.302;14.294;2023-02-12T04:11:55;100412.13;;;3.93;100.00
11108;BME280;5607;48.302;14.294;2023-02-12T04:18:22;100412.22;;;3.90;100.00
11108;BME280;5607;48.302;14.294;2023-02-12T04:21:37;100402.34;;;4.01;100.00
11108;BME280;5607;48.302;14.294;2023-02-12T04:24:45;100409.28;;;4.00;100.00
11108;BME280;5607;48.302;14.294;2023-02-12T04:27:44;100405.47;;;4.11;100.00
11108;BME280;5607;48.302;14.294;2023-02-12T04:31:02;100397.13;;;4.02;100.00
11108;BME280;5607;48.302;14.294;2023-02-12T04:34:09;100377.50;;;3.97;100.00
11108;BME280;5607;48.302;14.294;2023-02-12T04:37:42;100377.28;;;4.03;100.00
11108;BME280;5607;48.302;14.294;2023-02-12T04:40:26;100402.56;;;4.20;100.00
11108;BME280;5607;48.302;14.294;2023-02-12T04:43:13;100416.28;;;4.22;100.00
11108;BME280;5607;48.302;14.294;2023-02-12T04:46:01;100407.88;;;4.15;100.00
11108;BME280;5607;48.302;14.294;2023-02-12T04:48:56;100425.56;;;4.27;100.00
11108;BME280;5607;48.302;14.294;2023-02-12T04:51:43;100428.13;;;4.29;100.00
11108;BME280;5607;48.302;14.294;2023-02-12T04:54:30;100421.78;;;4.13;100.00
11108;BME280;5607;48.302;14.294;2023-02-12T04:57:16;100422.25;;;4.24;100.00
11108;BME280;5607;48.302;14.294;2023-02-12T05:00:05;100419.59;;;4.25;100.00
11108;BME280;5607;48.302;14.294;2023-02-12T05:02:51;100431.69;;;4.25;100.00
11108;BME280;5607;48.302;14.294;2023-02-12T05:05:38;100420.81;;;4.15;100.00
11108;BME280;5607;48.302;14.294;2023-02-12T05:08:25;100429.59;;;4.11;100.00
11108;BME280;5607;48.302;14.294;2023-02-12T05:11:11;100419.28;;;4.10;100.00
11108;BME280;5607;48.302;14.294;2023-02-12T05:13:58;100425.75;;;3.96;100.00
11108;BME280;5607;48.302;14.294;2023-02-12T05:16:45;100426.72;;;3.94;100.00
11108;BME280;5607;48.302;14.294;2023-02-12T05:19:31;100426.59;;;3.97;100.00
11108;BME280;5607;48.302;14.294;2023-02-12T05:22:18;100430.22;;;3.93;100.00
11108;BME280;5607;48.302;14.294;2023-02-12T05:25:05;100441.25;;;3.98;100.00
11108;BME280;5607;48.302;14.294;2023-02-12T05:27:52;100453.50;;;4.18;100.00
11108;BME280;5607;48.302;14.294;2023-02-12T05:30:38;100458.31;;;4.02;100.00
11108;BME280;5607;48.302;14.294;2023-02-12T05:33:25;100453.16;;;4.02;100.00
11108;BME280;5607;48.302;14.294;2023-02-12T05:36:14;100472.84;;;4.06;100.00
11108;BME280;5607;48.302;14.294;2023-02-12T05:39:00;100466.06;;;4.02;100.00
11108;BME280;5607;48.302;14.294;2023-02-12T05:41:47;100461.66;;;4.05;100.00
11108;BME280;5607;48.302;14.294;2023-02-12T05:44:33;100465.09;;;4.06;100.00
11108;BME280;5607;48.302;14.294;2023-02-12T05:47:20;100467.69;;;4.31;100.00
11108;BME280;5607;48.302;14.294;2023-02-12T05:50:07;100477.53;;;4.20;100.00
11108;BME280;5607;48.302;14.294;2023-02-12T05:52:54;100475.78;;;3.95;100.00
11108;BME280;5607;48.302;14.294;2023-02-12T05:55:40;100442.44;;;3.88;100.00
11108;BME280;5607;48.302;14.294;2023-02-12T05:58:27;100479.50;;;4.13;100.00
11108;BME280;5607;48.302;14.294;2023-02-12T06:01:21;100482.44;;;4.02;100.00
11108;BME280;5607;48.302;14.294;2023-02-12T06:04:13;100482.22;;;4.09;100.00
11108;BME280;5607;48.302;14.294;2023-02-12T06:07:00;100480.16;;;3.93;100.00
11108;BME280;5607;48.302;14.294;2023-02-12T06:09:46;100488.13;;;3.87;100.00
11108;BME280;5607;48.302;14.294;2023-02-12T06:12:33;100495.03;;;3.87;100.00
11108;BME280;5607;48.302;14.294;2023-02-12T06:15:19;100500.69;;;3.98;100.00
11108;BME280;5607;48.302;14.294;2023-02-12T06:18:06;100497.41;;;3.93;100.00
11108;BME280;5607;48.302;14.294;2023-02-12T06:20:53;100491.97;;;4.00;100.00
11108;BME280;5607;48.302;14.294;2023-02-12T06:23:40;100504.34;;;3.91;100.00
11108;BME280;5607;48.302;14.294;2023-02-12T06:26:26;100504.47;;;3.88;100.00
11108;BME280;5607;48.302;14.294;2023-02-12T06:29:13;100512.41;;;3.82;100.00
11108;BME280;5607;48.302;14.294;2023-02-12T06:32:00;100492.06;;;3.71;100.00
11108;BME280;5607;48.302;14.294;2023-02-12T06:34:46;100511.19;;;3.93;100.00
11108;BME280;5607;48.302;14.294;2023-02-12T06:37:33;100514.34;;;4.01;100.00
11108;BME280;5607;48.302;14.294;2023-02-12T06:40:22;100520.00;;;4.13;100.00
11108;BME280;5607;48.302;14.294;2023-02-12T06:43:09;100519.69;;;4.22;100.00
11108;BME280;5607;48.302;14.294;2023-02-12T06:45:58;100522.97;;;4.27;100.00
11108;BME280;5607;48.302;14.294;2023-02-12T06:48:45;100515.00;;;4.08;100.00
11108;BME280;5607;48.302;14.294;2023-02-12T06:51:32;100525.09;;;3.89;100.00
11108;BME280;5607;48.302;14.294;2023-02-12T06:54:18;100530.09;;;3.67;100.00
11108;BME280;5607;48.302;14.294;2023-02-12T06:57:05;100524.94;;;3.67;100.00
11108;BME280;5607;48.302;14.294;2023-02-12T06:59:51;100523.72;;;3.77;100.00
11108;BME280;5607;48.302;14.294;2023-02-12T07:02:38;100527.53;;;3.94;100.00
11108;BME280;5607;48.302;14.294;2023-02-12T07:05:24;100536.75;;;3.74;100.00
11108;BME280;5607;48.302;14.294;2023-02-12T07:08:11;100531.53;;;3.76;100.00
11108;BME280;5607;48.302;14.294;2023-02-12T07:10:58;100541.16;;;3.99;100.00
11108;BME280;5607;48.302;14.294;2023-02-12T07:13:44;100537.56;;;4.03;100.00
11108;BME280;5607;48.302;14.294;2023-02-12T07:16:31;100546.59;;;3.90;100.00
11108;BME280;5607;48.302;14.294;2023-02-12T07:19:17;100550.53;;;4.01;100.00
11108;BME280;5607;48.302;14.294;2023-02-12T07:22:04;100547.22;;;3.98;100.00
11108;BME280;5607;48.302;14.294;2023-02-12T07:24:50;100552.72;;;4.14;100.00
11108;BME280;5607;48.302;14.294;2023-02-12T07:27:37;100550.72;;;4.22;100.00
11108;BME280;5607;48.302;14.294;2023-02-12T07:30:24;100545.59;;;4.20;100.00
11108;BME280;5607;48.302;14.294;2023-02-12T07:33:10;100553.28;;;4.23;100.00
11108;BME280;5607;48.302;14.294;2023-02-12T07:35:59;100553.09;;;4.29;100.00
11108;BME280;5607;48.302;14.294;2023-02-12T07:38:46;100541.78;;;4.32;100.00
11108;BME280;5607;48.302;14.294;2023-02-12T07:41:34;100528.34;;;4.21;100.00
11108;BME280;5607;48.302;14.294;2023-02-12T07:44:21;100535.97;;;4.25;100.00
11108;BME280;5607;48.302;14.294;2023-02-12T07:47:08;100526.59;;;4.21;100.00
11108;BME280;5607;48.302;14.294;2023-02-12T07:49:54;100537.34;;;4.36;100.00
11108;BME280;5607;48.302;14.294;2023-02-12T07:52:41;100542.13;;;4.48;100.00
11108;BME280;5607;48.302;14.294;2023-02-12T07:55:27;100547.66;;;4.37;100.00
11108;BME280;5607;48.302;14.294;2023-02-12T07:58:14;100538.25;;;4.08;100.00
11108;BME280;5607;48.302;14.294;2023-02-12T08:01:10;100546.78;;;4.12;100.00
11108;BME280;5607;48.302;14.294;2023-02-12T08:03:59;100557.84;;;4.42;100.00
11108;BME280;5607;48.302;14.294;2023-02-12T08:06:48;100534.66;;;4.39;100.00
11108;BME280;5607;48.302;14.294;2023-02-12T08:09:35;100466.47;;;3.90;100.00
11108;BME280;5607;48.302;14.294;2023-02-12T08:12:21;100552.06;;;4.58;100.00
11108;BME280;5607;48.302;14.294;2023-02-12T08:15:09;100531.50;;;4.55;100.00
11108;BME280;5607;48.302;14.294;2023-02-12T08:17:55;100550.59;;;4.76;100.00
11108;BME280;5607;48.302;14.294;2023-02-12T08:20:42;100548.09;;;4.98;100.00
11108;BME280;5607;48.302;14.294;2023-02-12T08:23:29;100552.19;;;4.80;100.00
11108;BME280;5607;48.302;14.294;2023-02-12T08:26:33;100552.63;;;4.68;100.00
11108;BME280;5607;48.302;14.294;2023-02-12T08:29:22;100549.38;;;4.37;100.00
11108;BME280;5607;48.302;14.294;2023-02-12T08:32:09;100554.91;;;4.26;100.00
11108;BME280;5607;48.302;14.294;2023-02-12T08:34:59;100533.72;;;4.15;100.00
11108;BME280;5607;48.302;14.294;2023-02-12T08:37:45;100551.84;;;4.40;100.00
11108;BME280;5607;48.302;14.294;2023-02-12T08:40:32;100561.84;;;4.50;100.00
11108;BME280;5607;48.302;14.294;2023-02-12T08:43:18;100561.91;;;4.49;100.00
11108;BME280;5607;48.302;14.294;2023-02-12T08:46:14;100564.91;;;4.62;100.00
11108;BME280;5607;48.302;14.294;2023-02-12T08:49:10;100568.50;;;4.82;100.00
11108;BME280;5607;48.302;14.294;2023-02-12T08:51:58;100568.78;;;4.75;100.00
11108;BME280;5607;48.302;14.294;2023-02-12T08:54:46;100567.94;;;4.74;100.00
11108;BME280;5607;48.302;14.294;2023-02-12T08:57:34;100568.50;;;4.82;100.00
11108;BME280;5607;48.302;14.294;2023-02-12T09:00:21;100555.72;;;4.78;100.00
11108;BME280;5607;48.302;14.294;2023-02-12T09:03:07;100571.13;;;5.06;100.00
11108;BME280;5607;48.302;14.294;2023-02-12T09:05:54;100560.59;;;4.87;100.00
11108;BME280;5607;48.302;14.294;2023-02-12T09:08:41;100570.66;;;4.95;100.00
11108;BME280;5607;48.302;14.294;2023-02-12T09:11:28;100577.38;;;5.00;100.00
11108;BME280;5607;48.302;14.294;2023-02-12T09:14:19;100580.63;;;5.05;100.00
11108;BME280;5607;48.302;14.294;2023-02-12T09:17:09;100588.75;;;5.20;100.00
11108;BME280;5607;48.302;14.294;2023-02-12T09:19:55;100583.31;;;5.02;100.00
11108;BME280;5607;48.302;14.294;2023-02-12T09:22:42;100587.34;;;5.11;100.00
11108;BME280;5607;48.302;14.294;2023-02-12T09:25:29;100595.44;;;5.25;100.00
11108;BME280;5607;48.302;14.294;2023-02-12T09:28:16;100603.09;;;5.52;100.00
11108;BME280;5607;48.302;14.294;2023-02-12T09:31:17;100595.53;;;5.69;100.00
11108;BME280;5607;48.302;14.294;2023-02-12T09:34:05;100592.13;;;5.90;100.00
11108;BME280;5607;48.302;14.294;2023-02-12T09:36:52;100605.66;;;6.20;100.00
11108;BME280;5607;48.302;14.294;2023-02-12T09:39:38;100603.25;;;6.16;100.00
11108;BME280;5607;48.302;14.294;2023-02-12T09:45:34;100618.22;;;6.52;100.00
11108;BME280;5607;48.302;14.294;2023-02-12T09:48:42;100624.63;;;6.65;100.00
11108;BME280;5607;48.302;14.294;2023-02-12T09:51:31;100625.25;;;6.70;100.00
11108;BME280;5607;48.302;14.294;2023-02-12T09:54:19;100617.75;;;6.22;100.00
11108;BME280;5607;48.302;14.294;2023-02-12T09:57:24;100625.25;;;5.84;100.00
11108;BME280;5607;48.302;14.294;2023-02-12T10:00:18;100624.97;;;6.13;100.00
11108;BME280;5607;48.302;14.294;2023-02-12T10:03:12;100627.00;;;6.27;100.00
11108;BME280;5607;48.302;14.294;2023-02-12T10:06:24;100621.97;;;6.44;100.00
11108;BME280;5607;48.302;14.294;2023-02-12T10:09:37;100635.41;;;6.34;100.00
11108;BME280;5607;48.302;14.294;2023-02-12T10:15:55;100635.78;;;6.45;100.00
11108;BME280;5607;48.302;14.294;2023-02-12T10:28:34;100637.25;;;6.52;100.00
11108;BME280;5607;48.302;14.294;2023-02-12T10:31:36;100625.25;;;6.70;100.00
11108;BME280;5607;48.302;14.294;2023-02-12T10:34:25;100630.81;;;7.01;100.00
11108;BME280;5607;48.302;14.294;2023-02-12T10:40:06;100642.31;;;6.75;100.00
11108;BME280;5607;48.302;14.294;2023-02-12T10:43:01;100625.84;;;6.97;100.00
11108;BME280;5607;48.302;14.294;2023-02-12T10:45:48;100617.06;;;6.99;100.00
11108;BME280;5607;48.302;14.294;2023-02-12T10:48:37;100626.44;;;7.04;100.00
11108;BME280;5607;48.302;14.294;2023-02-12T10:54:39;100631.75;;;7.00;100.00
11108;BME280;5607;48.302;14.294;2023-02-12T10:57:29;100636.28;;;7.16;100.00
11108;BME280;5607;48.302;14.294;2023-02-12T11:00:31;100633.50;;;7.00;100.00
11108;BME280;5607;48.302;14.294;2023-02-12T11:03:22;100642.19;;;7.19;100.00
11108;BME280;5607;48.302;14.294;2023-02-12T11:06:19;100645.78;;;6.96;100.00
11108;BME280;5607;48.302;14.294;2023-02-12T11:09:26;100635.00;;;6.85;100.00
11108;BME280;5607;48.302;14.294;2023-02-12T11:20:55;100623.56;;;6.48;100.00
11108;BME280;5607;48.302;14.294;2023-02-12T11:23:43;100621.50;;;6.77;100.00
11108;BME280;5607;48.302;14.294;2023-02-12T11:26:30;100608.75;;;7.12;100.00
11108;BME280;5607;48.302;14.294;2023-02-12T11:29:22;100610.09;;;7.20;100.00
11108;BME280;5607;48.302;14.294;2023-02-12T11:32:16;100613.22;;;7.28;100.00
11108;BME280;5607;48.302;14.294;2023-02-12T11:37:54;100606.38;;;7.26;100.00
11108;BME280;5607;48.302;14.294;2023-02-12T11:40:44;100608.22;;;7.43;100.00
11108;BME280;5607;48.302;14.294;2023-02-12T11:43:33;100601.19;;;7.26;100.00
11108;BME280;5607;48.302;14.294;2023-02-12T11:46:24;100612.78;;;7.56;100.00
11108;BME280;5607;48.302;14.294;2023-02-12T11:49:19;100603.38;;;7.92;100.00
11108;BME280;5607;48.302;14.294;2023-02-12T11:52:19;100606.22;;;8.04;100.00
11108;BME280;5607;48.302;14.294;2023-02-12T11:55:20;100605.16;;;7.53;100.00
11108;BME280;5607;48.302;14.294;2023-02-12T11:58:14;100599.28;;;7.86;100.00
11108;BME280;5607;48.302;14.294;2023-02-12T12:01:21;100602.88;;;8.02;100.00
11108;BME280;5607;48.302;14.294;2023-02-12T12:04:16;100600.34;;;8.18;100.00
11108;BME280;5607;48.302;14.294;2023-02-12T12:07:14;100593.28;;;7.48;100.00
11108;BME280;5607;48.302;14.294;2023-02-12T12:10:18;100591.22;;;7.36;100.00
11108;BME280;5607;48.302;14.294;2023-02-12T12:13:12;100603.22;;;7.38;100.00
11108;BME280;5607;48.302;14.294;2023-02-12T12:16:10;100593.91;;;7.53;100.00
11108;BME280;5607;48.302;14.294;2023-02-12T12:19:42;100600.06;;;7.69;100.00
11108;BME280;5607;48.302;14.294;2023-02-12T12:23:04;100591.88;;;7.60;100.00
11108;BME280;5607;48.302;14.294;2023-02-12T12:26:00;100589.28;;;7.60;100.00
11108;BME280;5607;48.302;14.294;2023-02-12T12:29:19;100588.72;;;7.53;100.00
11108;BME280;5607;48.302;14.294;2023-02-12T12:32:11;100589.19;;;7.61;100.00
11108;BME280;5607;48.302;14.294;2023-02-12T12:35:00;100586.50;;;7.25;100.00
11108;BME280;5607;48.302;14.294;2023-02-12T12:37:53;100584.63;;;7.47;100.00
11108;BME280;5607;48.302;14.294;2023-02-12T12:41:23;100592.63;;;7.24;100.00
11108;BME280;5607;48.302;14.294;2023-02-12T13:15:13;100575.13;;;7.84;100.00
11108;BME280;5607;48.302;14.294;2023-02-12T13:24:10;100567.00;;;8.09;100.00
11108;BME280;5607;48.302;14.294;2023-02-12T13:27:19;100572.94;;;8.11;100.00
11108;BME280;5607;48.302;14.294;2023-02-12T13:33:09;100575.72;;;8.08;100.00
11108;BME280;5607;48.302;14.294;2023-02-12T13:35:59;100584.31;;;8.27;100.00
11108;BME280;5607;48.302;14.294;2023-02-12T13:54:40;100564.53;;;8.23;100.00
11108;BME280;5607;48.302;14.294;2023-02-12T13:57:33;100556.38;;;8.14;100.00
11108;BME280;5607;48.302;14.294;2023-02-12T14:00:56;100553.78;;;7.95;100.00
11108;BME280;5607;48.302;14.294;2023-02-12T14:03:43;100561.50;;;7.79;100.00
11108;BME280;5607;48.302;14.294;2023-02-12T14:06:30;100555.56;;;7.58;100.00
11108;BME280;5607;48.302;14.294;2023-02-12T14:09:21;100554.97;;;7.70;100.00
11108;BME280;5607;48.302;14.294;2023-02-12T14:21:33;100561.00;;;7.90;100.00
11108;BME280;5607;48.302;14.294;2023-02-12T14:27:45;100552.69;;;7.81;100.00
11108;BME280;5607;48.302;14.294;2023-02-12T14:30:39;100557.28;;;7.76;100.00
11108;BME280;5607;48.302;14.294;2023-02-12T14:33:26;100553.69;;;7.79;100.00
11108;BME280;5607;48.302;14.294;2023-02-12T14:44:55;100554.03;;;7.90;100.00
11108;BME280;5607;48.302;14.294;2023-02-12T14:50:37;100553.50;;;8.01;100.00
11108;BME280;5607;48.302;14.294;2023-02-12T14:53:29;100558.47;;;8.05;100.00
11108;BME280;5607;48.302;14.294;2023-02-12T14:56:21;100556.84;;;7.86;100.00
11108;BME280;5607;48.302;14.294;2023-02-12T14:59:14;100555.53;;;7.94;100.00
11108;BME280;5607;48.302;14.294;2023-02-12T15:02:02;100552.91;;;8.30;100.00
11108;BME280;5607;48.302;14.294;2023-02-12T15:04:52;100549.38;;;8.31;100.00
11108;BME280;5607;48.302;14.294;2023-02-12T15:14:15;100561.06;;;8.59;100.00
11108;BME280;5607;48.302;14.294;2023-02-12T15:17:08;100553.59;;;8.17;100.00
11108;BME280;5607;48.302;14.294;2023-02-12T15:20:01;100546.50;;;7.84;100.00
11108;BME280;5607;48.302;14.294;2023-02-12T15:22:51;100555.16;;;7.85;100.00
11108;BME280;5607;48.302;14.294;2023-02-12T15:25:38;100552.94;;;7.77;100.00
11108;BME280;5607;48.302;14.294;2023-02-12T15:28:29;100541.91;;;7.72;100.00
11108;BME280;5607;48.302;14.294;2023-02-12T15:31:23;100555.03;;;7.69;100.00
11108;BME280;5607;48.302;14.294;2023-02-12T15:34:17;100549.28;;;7.62;100.00
11108;BME280;5607;48.302;14.294;2023-02-12T15:37:07;100556.59;;;7.54;100.00
11108;BME280;5607;48.302;14.294;2023-02-12T15:40:00;100550.56;;;7.53;100.00
11108;BME280;5607;48.302;14.294;2023-02-12T15:42:56;100557.56;;;7.51;100.00
11108;BME280;5607;48.302;14.294;2023-02-12T15:45:50;100561.72;;;7.55;100.00
11108;BME280;5607;48.302;14.294;2023-02-12T15:48:37;100562.47;;;7.57;100.00
11108;BME280;5607;48.302;14.294;2023-02-12T15:51:32;100561.06;;;7.69;100.00
11108;BME280;5607;48.302;14.294;2023-02-12T15:54:20;100565.72;;;7.63;100.00
11108;BME280;5607;48.302;14.294;2023-02-12T15:57:12;100561.72;;;7.55;100.00
11108;BME280;5607;48.302;14.294;2023-02-12T16:00:06;100565.31;;;7.53;100.00
11108;BME280;5607;48.302;14.294;2023-02-12T16:02:54;100553.53;;;7.46;100.00
11108;BME280;5607;48.302;14.294;2023-02-12T16:05:41;100554.84;;;7.36;100.00
11108;BME280;5607;48.302;14.294;2023-02-12T16:08:28;100557.06;;;7.24;100.00
11108;BME280;5607;48.302;14.294;2023-02-12T16:11:19;100557.63;;;7.31;100.00
11108;BME280;5607;48.302;14.294;2023-02-12T16:14:21;100561.88;;;7.34;100.00
11108;BME280;5607;48.302;14.294;2023-02-12T16:17:35;100563.47;;;7.17;100.00
11108;BME280;5607;48.302;14.294;2023-02-12T16:20:26;100568.66;;;7.17;100.00
11108;BME280;5607;48.302;14.294;2023-02-12T16:23:13;100566.53;;;7.07;100.00
11108;BME280;5607;48.302;14.294;2023-02-12T16:25:59;100567.06;;;6.94;100.00
11108;BME280;5607;48.302;14.294;2023-02-12T16:28:48;100569.75;;;6.93;100.00
11108;BME280;5607;48.302;14.294;2023-02-12T16:31:35;100573.00;;;6.98;100.00
11108;BME280;5607;48.302;14.294;2023-02-12T16:34:32;100578.56;;;6.89;100.00
11108;BME280;5607;48.302;14.294;2023-02-12T16:37:43;100577.88;;;6.85;100.00
11108;BME280;5607;48.302;14.294;2023-02-12T16:40:32;100585.81;;;7.01;100.00
11108;BME280;5607;48.302;14.294;2023-02-12T16:43:24;100584.94;;;7.02;100.00
11108;BME280;5607;48.302;14.294;2023-02-12T16:46:13;100587.13;;;7.11;100.00
11108;BME280;5607;48.302;14.294;2023-02-12T16:49:02;100592.31;;;7.11;100.00
11108;BME280;5607;48.302;14.294;2023-02-12T16:51:50;100596.22;;;7.01;100.00
11108;BME280;5607;48.302;14.294;2023-02-12T16:54:37;100598.13;;;6.97;100.00
11108;BME280;5607;48.302;14.294;2023-02-12T16:57:23;100600.53;;;7.02;100.00
11108;BME280;5607;48.302;14.294;2023-02-12T17:00:15;100602.31;;;7.00;100.00
11108;BME280;5607;48.302;14.294;2023-02-12T17:03:02;100607.59;;;6.98;100.00
11108;BME280;5607;48.302;14.294;2023-02-12T17:05:48;100601.88;;;7.11;100.00
11108;BME280;5607;48.302;14.294;2023-02-12T17:08:37;100597.53;;;6.91;100.00
11108;BME280;5607;48.302;14.294;2023-02-12T17:11:25;100608.50;;;6.97;100.00
11108;BME280;5607;48.302;14.294;2023-02-12T17:14:17;100614.81;;;6.92;100.00
11108;BME280;5607;48.302;14.294;2023-02-12T17:17:04;100610.00;;;6.83;100.00
11108;BME280;5607;48.302;14.294;2023-02-12T17:19:51;100612.53;;;6.84;100.00
11108;BME280;5607;48.302;14.294;2023-02-12T17:22:39;100618.75;;;6.80;100.00
11108;BME280;5607;48.302;14.294;2023-02-12T17:25:32;100611.13;;;6.77;100.00
11108;BME280;5607;48.302;14.294;2023-02-12T17:28:19;100600.38;;;6.64;100.00
11108;BME280;5607;48.302;14.294;2023-02-12T17:31:08;100613.63;;;6.58;100.00